sensor_id;sensor_type;location;lat;lon;timestamp;P1;durP1;ratioP1;P2;durP2;ratioP2
27706;SDS011;36332;51.384;0.040;2023-04-01T00:00:57;34.35;;;15.60;;
27706;SDS011;36332;51.384;0.040;2023-04-01T00:03:26;31.90;;;16.52;;
27706;SDS011;36332;51.384;0.040;2023-04-01T00:05:55;36.38;;;16.73;;
27706;SDS011;36332;51.384;0.040;2023-04-01T00:08:24;32.30;;;17.15;;
27706;SDS011;36332;51.384;0.040;2023-04-01T00:10:53;30.20;;;15.82;;
27706;SDS011;36332;51.384;0.040;2023-04-01T00:13:21;34.67;;;16.38;;
27706;SDS011;36332;51.384;0.040;2023-04-01T00:15:49;31.08;;;15.50;;
27706;SDS011;36332;51.384;0.040;2023-04-01T00:18:17;27.90;;;15.32;;
27706;SDS011;36332;51.384;0.040;2023-04-01T00:20:46;28.77;;;15.73;;
27706;SDS011;36332;51.384;0.040;2023-04-01T00:23:14;29.17;;;16.08;;
27706;SDS011;36332;51.384;0.040;2023-04-01T00:25:43;26.58;;;14.50;;
27706;SDS011;36332;51.384;0.040;2023-04-01T00:28:14;32.85;;;16.20;;
27706;SDS011;36332;51.384;0.040;2023-04-01T00:30:43;37.05;;;17.90;;
27706;SDS011;36332;51.384;0.040;2023-04-01T00:33:11;35.10;;;15.88;;
27706;SDS011;36332;51.384;0.040;2023-04-01T00:35:39;34.40;;;16.38;;
27706;SDS011;36332;51.384;0.040;2023-04-01T00:38:06;31.95;;;17.25;;
27706;SDS011;36332;51.384;0.040;2023-04-01T00:40:36;35.05;;;17.60;;
27706;SDS011;36332;51.384;0.040;2023-04-01T00:43:16;29.13;;;16.42;;
27706;SDS011;36332;51.384;0.040;2023-04-01T00:45:48;27.92;;;15.55;;
27706;SDS011;36332;51.384;0.040;2023-04-01T00:48:17;30.23;;;15.25;;
27706;SDS011;36332;51.384;0.040;2023-04-01T00:50:52;30.75;;;16.15;;
27706;SDS011;36332;51.384;0.040;2023-04-01T00:53:26;32.72;;;16.90;;
27706;SDS011;36332;51.384;0.040;2023-04-01T00:55:59;33.03;;;17.40;;
27706;SDS011;36332;51.384;0.040;2023-04-01T00:58:31;32.15;;;17.70;;
27706;SDS011;36332;51.384;0.040;2023-04-01T01:01:02;31.20;;;16.65;;
27706;SDS011;36332;51.384;0.040;2023-04-01T01:03:30;33.00;;;19.08;;
27706;SDS011;36332;51.384;0.040;2023-04-01T01:06:08;34.75;;;18.83;;
27706;SDS011;36332;51.384;0.040;2023-04-01T01:11:30;26.45;;;15.77;;
27706;SDS011;36332;51.384;0.040;2023-04-01T01:14:18;28.80;;;16.55;;
27706;SDS011;36332;51.384;0.040;2023-04-01T01:20:03;30.00;;;17.63;;
27706;SDS011;36332;51.384;0.040;2023-04-01T01:25:25;30.20;;;15.10;;
27706;SDS011;36332;51.384;0.040;2023-04-01T01:28:24;25.33;;;14.90;;
27706;SDS011;36332;51.384;0.040;2023-04-01T01:32:23;22.83;;;13.75;;
27706;SDS011;36332;51.384;0.040;2023-04-01T01:37:09;17.73;;;11.15;;
27706;SDS011;36332;51.384;0.040;2023-04-01T01:39:43;20.70;;;11.32;;
27706;SDS011;36332;51.384;0.040;2023-04-01T01:42:15;16.10;;;8.45;;
27706;SDS011;36332;51.384;0.040;2023-04-01T01:44:45;14.48;;;8.02;;
27706;SDS011;36332;51.384;0.040;2023-04-01T01:47:15;12.10;;;7.35;;
27706;SDS011;36332;51.384;0.040;2023-04-01T01:49:46;11.00;;;6.75;;
27706;SDS011;36332;51.384;0.040;2023-04-01T01:52:16;12.10;;;7.53;;
27706;SDS011;36332;51.384;0.040;2023-04-01T01:54:51;10.18;;;6.57;;
27706;SDS011;36332;51.384;0.040;2023-04-01T01:57:24;12.52;;;6.55;;
27706;SDS011;36332;51.384;0.040;2023-04-01T02:00:02;10.75;;;6.40;;
27706;SDS011;36332;51.384;0.040;2023-04-01T02:02:42;10.18;;;5.72;;
27706;SDS011;36332;51.384;0.040;2023-04-01T02:05:20;8.60;;;5.70;;
27706;SDS011;36332;51.384;0.040;2023-04-01T02:08:02;11.13;;;6.28;;
27706;SDS011;36332;51.384;0.040;2023-04-01T02:10:37;7.88;;;5.68;;
27706;SDS011;36332;51.384;0.040;2023-04-01T02:13:16;7.68;;;4.70;;
27706;SDS011;36332;51.384;0.040;2023-04-01T02:15:50;6.18;;;4.80;;
27706;SDS011;36332;51.384;0.040;2023-04-01T02:18:26;7.28;;;4.72;;
27706;SDS011;36332;51.384;0.040;2023-04-01T02:20:57;9.90;;;4.88;;
27706;SDS011;36332;51.384;0.040;2023-04-01T02:23:26;7.05;;;4.57;;
27706;SDS011;36332;51.384;0.040;2023-04-01T02:25:56;11.35;;;5.78;;
27706;SDS011;36332;51.384;0.040;2023-04-01T02:28:23;7.25;;;4.50;;
27706;SDS011;36332;51.384;0.040;2023-04-01T02:30:52;11.27;;;5.60;;
27706;SDS011;36332;51.384;0.040;2023-04-01T02:33:20;8.20;;;5.13;;
27706;SDS011;36332;51.384;0.040;2023-04-01T02:35:49;9.45;;;6.18;;
27706;SDS011;36332;51.384;0.040;2023-04-01T02:38:17;9.68;;;5.57;;
27706;SDS011;36332;51.384;0.040;2023-04-01T02:40:46;6.72;;;5.00;;
27706;SDS011;36332;51.384;0.040;2023-04-01T02:43:16;6.88;;;5.40;;
27706;SDS011;36332;51.384;0.040;2023-04-01T02:45:45;7.28;;;5.22;;
27706;SDS011;36332;51.384;0.040;2023-04-01T02:48:13;8.68;;;5.28;;
27706;SDS011;36332;51.384;0.040;2023-04-01T02:50:41;10.65;;;5.72;;
27706;SDS011;36332;51.384;0.040;2023-04-01T02:53:08;9.00;;;5.35;;
27706;SDS011;36332;51.384;0.040;2023-04-01T02:55:36;9.20;;;5.53;;
27706;SDS011;36332;51.384;0.040;2023-04-01T02:58:03;8.05;;;5.40;;
27706;SDS011;36332;51.384;0.040;2023-04-01T03:00:32;12.18;;;5.15;;
27706;SDS011;36332;51.384;0.040;2023-04-01T03:02:59;7.88;;;5.28;;
27706;SDS011;36332;51.384;0.040;2023-04-01T03:05:28;7.75;;;4.65;;
27706;SDS011;36332;51.384;0.040;2023-04-01T03:07:56;6.45;;;4.75;;
27706;SDS011;36332;51.384;0.040;2023-04-01T03:10:24;8.23;;;4.72;;
27706;SDS011;36332;51.384;0.040;2023-04-01T03:12:51;12.80;;;6.35;;
27706;SDS011;36332;51.384;0.040;2023-04-01T03:15:19;8.57;;;5.30;;
27706;SDS011;36332;51.384;0.040;2023-04-01T03:17:47;8.02;;;4.88;;
27706;SDS011;36332;51.384;0.040;2023-04-01T03:20:15;6.82;;;4.63;;
27706;SDS011;36332;51.384;0.040;2023-04-01T03:22:42;7.63;;;4.80;;
27706;SDS011;36332;51.384;0.040;2023-04-01T03:25:10;6.28;;;4.72;;
27706;SDS011;36332;51.384;0.040;2023-04-01T03:27:39;8.02;;;5.07;;
27706;SDS011;36332;51.384;0.040;2023-04-01T03:30:08;7.57;;;4.70;;
27706;SDS011;36332;51.384;0.040;2023-04-01T03:32:44;9.05;;;4.78;;
27706;SDS011;36332;51.384;0.040;2023-04-01T03:35:12;5.95;;;4.18;;
27706;SDS011;36332;51.384;0.040;2023-04-01T03:37:40;7.80;;;4.85;;
27706;SDS011;36332;51.384;0.040;2023-04-01T03:40:08;7.95;;;3.83;;
27706;SDS011;36332;51.384;0.040;2023-04-01T03:42:37;5.15;;;3.78;;
27706;SDS011;36332;51.384;0.040;2023-04-01T03:45:05;7.35;;;4.50;;
27706;SDS011;36332;51.384;0.040;2023-04-01T03:47:33;12.85;;;4.60;;
27706;SDS011;36332;51.384;0.040;2023-04-01T03:50:01;6.68;;;3.78;;
27706;SDS011;36332;51.384;0.040;2023-04-01T03:52:29;8.35;;;4.70;;
27706;SDS011;36332;51.384;0.040;2023-04-01T03:54:57;10.93;;;4.60;;
27706;SDS011;36332;51.384;0.040;2023-04-01T03:57:25;6.55;;;4.60;;
27706;SDS011;36332;51.384;0.040;2023-04-01T03:59:56;5.50;;;4.10;;
27706;SDS011;36332;51.384;0.040;2023-04-01T04:02:24;6.15;;;4.35;;
27706;SDS011;36332;51.384;0.040;2023-04-01T04:04:52;7.53;;;4.75;;
27706;SDS011;36332;51.384;0.040;2023-04-01T04:07:20;7.88;;;4.78;;
27706;SDS011;36332;51.384;0.040;2023-04-01T04:10:02;5.22;;;4.18;;
27706;SDS011;36332;51.384;0.040;2023-04-01T04:12:29;6.25;;;4.30;;
27706;SDS011;36332;51.384;0.040;2023-04-01T04:14:57;6.95;;;3.85;;
27706;SDS011;36332;51.384;0.040;2023-04-01T04:17:24;5.80;;;4.03;;
27706;SDS011;36332;51.384;0.040;2023-04-01T04:19:53;5.97;;;3.50;;
27706;SDS011;36332;51.384;0.040;2023-04-01T04:22:21;7.65;;;4.95;;
27706;SDS011;36332;51.384;0.040;2023-04-01T04:24:49;4.70;;;3.15;;
27706;SDS011;36332;51.384;0.040;2023-04-01T04:27:17;7.43;;;3.72;;
27706;SDS011;36332;51.384;0.040;2023-04-01T04:29:54;7.43;;;3.70;;
27706;SDS011;36332;51.384;0.040;2023-04-01T04:32:22;5.45;;;3.72;;
27706;SDS011;36332;51.384;0.040;2023-04-01T04:34:50;4.60;;;2.78;;
27706;SDS011;36332;51.384;0.040;2023-04-01T04:37:19;9.05;;;3.40;;
27706;SDS011;36332;51.384;0.040;2023-04-01T04:39:46;6.95;;;4.03;;
27706;SDS011;36332;51.384;0.040;2023-04-01T04:42:14;6.40;;;3.78;;
27706;SDS011;36332;51.384;0.040;2023-04-01T04:44:42;5.63;;;3.67;;
27706;SDS011;36332;51.384;0.040;2023-04-01T04:47:10;7.82;;;4.05;;
27706;SDS011;36332;51.384;0.040;2023-04-01T04:49:38;8.55;;;4.35;;
27706;SDS011;36332;51.384;0.040;2023-04-01T04:52:08;8.30;;;4.32;;
27706;SDS011;36332;51.384;0.040;2023-04-01T04:54:36;6.65;;;4.07;;
27706;SDS011;36332;51.384;0.040;2023-04-01T04:57:04;7.00;;;4.18;;
27706;SDS011;36332;51.384;0.040;2023-04-01T04:59:38;8.88;;;4.72;;
27706;SDS011;36332;51.384;0.040;2023-04-01T05:02:23;4.90;;;3.67;;
27706;SDS011;36332;51.384;0.040;2023-04-01T05:04:50;6.32;;;3.55;;
27706;SDS011;36332;51.384;0.040;2023-04-01T05:07:18;6.00;;;3.83;;
27706;SDS011;36332;51.384;0.040;2023-04-01T05:09:47;5.45;;;3.92;;
27706;SDS011;36332;51.384;0.040;2023-04-01T05:12:14;5.40;;;3.25;;
27706;SDS011;36332;51.384;0.040;2023-04-01T05:14:55;5.50;;;4.97;;
27706;SDS011;36332;51.384;0.040;2023-04-01T05:17:23;4.57;;;3.30;;
27706;SDS011;36332;51.384;0.040;2023-04-01T05:19:51;7.15;;;3.20;;
27706;SDS011;36332;51.384;0.040;2023-04-01T05:22:19;4.47;;;3.30;;
27706;SDS011;36332;51.384;0.040;2023-04-01T05:24:47;5.25;;;2.92;;
27706;SDS011;36332;51.384;0.040;2023-04-01T05:27:16;4.90;;;3.17;;
27706;SDS011;36332;51.384;0.040;2023-04-01T05:29:44;3.78;;;2.88;;
27706;SDS011;36332;51.384;0.040;2023-04-01T05:32:30;3.97;;;2.67;;
27706;SDS011;36332;51.384;0.040;2023-04-01T05:34:58;5.43;;;3.72;;
27706;SDS011;36332;51.384;0.040;2023-04-01T05:37:26;3.63;;;2.78;;
27706;SDS011;36332;51.384;0.040;2023-04-01T05:39:54;6.47;;;3.67;;
27706;SDS011;36332;51.384;0.040;2023-04-01T05:42:22;5.97;;;3.78;;
27706;SDS011;36332;51.384;0.040;2023-04-01T05:44:50;11.07;;;4.30;;
27706;SDS011;36332;51.384;0.040;2023-04-01T05:47:36;6.00;;;4.45;;
27706;SDS011;36332;51.384;0.040;2023-04-01T05:50:04;5.18;;;3.47;;
27706;SDS011;36332;51.384;0.040;2023-04-01T05:52:32;6.03;;;3.70;;
27706;SDS011;36332;51.384;0.040;2023-04-01T05:55:00;9.35;;;4.25;;
27706;SDS011;36332;51.384;0.040;2023-04-01T05:57:27;5.88;;;4.00;;
27706;SDS011;36332;51.384;0.040;2023-04-01T05:59:55;6.32;;;4.05;;
27706;SDS011;36332;51.384;0.040;2023-04-01T06:02:22;6.75;;;4.47;;
27706;SDS011;36332;51.384;0.040;2023-04-01T06:04:53;7.63;;;4.15;;
27706;SDS011;36332;51.384;0.040;2023-04-01T06:07:29;8.27;;;4.60;;
27706;SDS011;36332;51.384;0.040;2023-04-01T06:09:57;6.43;;;4.10;;
27706;SDS011;36332;51.384;0.040;2023-04-01T06:12:40;7.53;;;4.30;;
27706;SDS011;36332;51.384;0.040;2023-04-01T06:20:40;7.65;;;4.63;;
27706;SDS011;36332;51.384;0.040;2023-04-01T06:36:49;6.60;;;4.35;;
27706;SDS011;36332;51.384;0.040;2023-04-01T06:45:00;11.55;;;5.45;;
27706;SDS011;36332;51.384;0.040;2023-04-01T06:51:14;12.32;;;5.93;;
27706;SDS011;36332;51.384;0.040;2023-04-01T06:54:49;10.70;;;6.25;;
27706;SDS011;36332;51.384;0.040;2023-04-01T06:58:13;9.95;;;6.72;;
27706;SDS011;36332;51.384;0.040;2023-04-01T07:00:50;10.88;;;5.78;;
27706;SDS011;36332;51.384;0.040;2023-04-01T07:03:23;12.05;;;6.93;;
27706;SDS011;36332;51.384;0.040;2023-04-01T07:05:59;12.02;;;6.55;;
27706;SDS011;36332;51.384;0.040;2023-04-01T07:08:34;10.20;;;5.97;;
27706;SDS011;36332;51.384;0.040;2023-04-01T07:11:05;11.60;;;6.97;;
27706;SDS011;36332;51.384;0.040;2023-04-01T07:16:32;11.65;;;6.95;;
27706;SDS011;36332;51.384;0.040;2023-04-01T07:19:11;8.70;;;6.07;;
27706;SDS011;36332;51.384;0.040;2023-04-01T07:22:04;10.35;;;5.85;;
27706;SDS011;36332;51.384;0.040;2023-04-01T07:25:07;12.98;;;6.43;;
27706;SDS011;36332;51.384;0.040;2023-04-01T07:27:50;11.40;;;6.65;;
27706;SDS011;36332;51.384;0.040;2023-04-01T07:30:20;11.57;;;6.40;;
27706;SDS011;36332;51.384;0.040;2023-04-01T07:33:03;12.27;;;6.63;;
27706;SDS011;36332;51.384;0.040;2023-04-01T07:35:38;10.23;;;6.07;;
27706;SDS011;36332;51.384;0.040;2023-04-01T07:41:12;10.70;;;6.75;;
27706;SDS011;36332;51.384;0.040;2023-04-01T07:57:19;15.52;;;6.20;;
27706;SDS011;36332;51.384;0.040;2023-04-01T08:05:16;11.45;;;6.20;;
27706;SDS011;36332;51.384;0.040;2023-04-01T08:11:12;11.25;;;6.43;;
27706;SDS011;36332;51.384;0.040;2023-04-01T08:14:17;14.40;;;6.13;;
27706;SDS011;36332;51.384;0.040;2023-04-01T08:20:28;19.73;;;9.07;;
27706;SDS011;36332;51.384;0.040;2023-04-01T08:25:39;20.98;;;9.88;;
27706;SDS011;36332;51.384;0.040;2023-04-01T08:28:29;22.73;;;11.50;;
27706;SDS011;36332;51.384;0.040;2023-04-01T08:34:09;19.42;;;9.57;;
27706;SDS011;36332;51.384;0.040;2023-04-01T08:36:51;20.60;;;10.68;;
27706;SDS011;36332;51.384;0.040;2023-04-01T08:39:29;14.45;;;8.48;;
27706;SDS011;36332;51.384;0.040;2023-04-01T08:42:16;14.80;;;8.57;;
27706;SDS011;36332;51.384;0.040;2023-04-01T08:56:35;15.63;;;8.50;;
27706;SDS011;36332;51.384;0.040;2023-04-01T08:59:35;15.20;;;8.55;;
27706;SDS011;36332;51.384;0.040;2023-04-01T09:11:44;13.23;;;7.43;;
27706;SDS011;36332;51.384;0.040;2023-04-01T09:14:50;15.70;;;7.90;;
27706;SDS011;36332;51.384;0.040;2023-04-01T09:21:13;13.95;;;8.07;;
27706;SDS011;36332;51.384;0.040;2023-04-01T09:37:34;14.50;;;7.60;;
27706;SDS011;36332;51.384;0.040;2023-04-01T09:43:33;12.60;;;6.75;;
27706;SDS011;36332;51.384;0.040;2023-04-01T09:46:31;10.00;;;6.78;;
27706;SDS011;36332;51.384;0.040;2023-04-01T09:49:36;9.70;;;5.97;;
27706;SDS011;36332;51.384;0.040;2023-04-01T09:55:17;11.82;;;5.38;;
27706;SDS011;36332;51.384;0.040;2023-04-01T10:31:42;9.93;;;5.95;;
27706;SDS011;36332;51.384;0.040;2023-04-01T10:40:05;7.03;;;4.85;;
27706;SDS011;36332;51.384;0.040;2023-04-01T10:52:05;8.18;;;4.93;;
27706;SDS011;36332;51.384;0.040;2023-04-01T11:36:25;15.40;;;8.38;;
27706;SDS011;36332;51.384;0.040;2023-04-01T11:39:27;15.45;;;8.27;;
27706;SDS011;36332;51.384;0.040;2023-04-01T11:42:40;18.08;;;10.13;;
27706;SDS011;36332;51.384;0.040;2023-04-01T11:46:05;19.35;;;9.80;;
27706;SDS011;36332;51.384;0.040;2023-04-01T11:51:39;19.30;;;8.50;;
27706;SDS011;36332;51.384;0.040;2023-04-01T12:11:16;16.50;;;7.20;;
27706;SDS011;36332;51.384;0.040;2023-04-01T12:19:10;17.27;;;7.22;;
27706;SDS011;36332;51.384;0.040;2023-04-01T12:24:28;16.30;;;6.63;;
27706;SDS011;36332;51.384;0.040;2023-04-01T12:29:49;16.33;;;6.40;;
27706;SDS011;36332;51.384;0.040;2023-04-01T12:35:51;16.42;;;6.68;;
27706;SDS011;36332;51.384;0.040;2023-04-01T12:38:54;13.25;;;5.13;;
27706;SDS011;36332;51.384;0.040;2023-04-01T12:41:39;15.25;;;5.30;;
27706;SDS011;36332;51.384;0.040;2023-04-01T12:44:46;11.05;;;4.65;;
27706;SDS011;36332;51.384;0.040;2023-04-01T12:58:07;13.73;;;4.88;;
27706;SDS011;36332;51.384;0.040;2023-04-01T13:03:38;18.98;;;5.82;;
27706;SDS011;36332;51.384;0.040;2023-04-01T13:20:02;13.18;;;3.90;;
27706;SDS011;36332;51.384;0.040;2023-04-01T13:28:40;6.63;;;3.67;;
27706;SDS011;36332;51.384;0.040;2023-04-01T13:31:42;10.07;;;4.35;;
27706;SDS011;36332;51.384;0.040;2023-04-01T13:34:31;9.05;;;4.38;;
27706;SDS011;36332;51.384;0.040;2023-04-01T13:37:05;8.73;;;3.80;;
27706;SDS011;36332;51.384;0.040;2023-04-01T13:40:10;12.50;;;3.95;;
27706;SDS011;36332;51.384;0.040;2023-04-01T14:15:14;10.25;;;2.90;;
27706;SDS011;36332;51.384;0.040;2023-04-01T14:20:26;9.23;;;2.55;;
27706;SDS011;36332;51.384;0.040;2023-04-01T14:45:34;7.80;;;3.25;;
27706;SDS011;36332;51.384;0.040;2023-04-01T14:56:42;6.03;;;2.58;;
27706;SDS011;36332;51.384;0.040;2023-04-01T15:08:08;8.68;;;3.95;;
27706;SDS011;36332;51.384;0.040;2023-04-01T15:21:16;12.70;;;4.05;;
27706;SDS011;36332;51.384;0.040;2023-04-01T15:30:04;10.65;;;4.45;;
27706;SDS011;36332;51.384;0.040;2023-04-01T15:43:47;15.48;;;6.15;;
27706;SDS011;36332;51.384;0.040;2023-04-01T15:49:04;11.48;;;6.28;;
27706;SDS011;36332;51.384;0.040;2023-04-01T15:51:46;13.90;;;4.97;;
27706;SDS011;36332;51.384;0.040;2023-04-01T15:54:38;9.88;;;4.75;;
27706;SDS011;36332;51.384;0.040;2023-04-01T15:57:27;19.95;;;5.35;;
27706;SDS011;36332;51.384;0.040;2023-04-01T16:00:02;9.52;;;5.13;;
27706;SDS011;36332;51.384;0.040;2023-04-01T16:02:48;18.25;;;6.22;;
27706;SDS011;36332;51.384;0.040;2023-04-01T16:05:48;9.68;;;4.85;;
27706;SDS011;36332;51.384;0.040;2023-04-01T16:10:55;11.00;;;4.80;;
27706;SDS011;36332;51.384;0.040;2023-04-01T16:13:54;8.07;;;5.75;;
27706;SDS011;36332;51.384;0.040;2023-04-01T16:19:17;11.07;;;5.60;;
27706;SDS011;36332;51.384;0.040;2023-04-01T16:35:55;10.80;;;6.15;;
27706;SDS011;36332;51.384;0.040;2023-04-01T16:38:41;14.15;;;6.53;;
27706;SDS011;36332;51.384;0.040;2023-04-01T16:41:23;9.65;;;5.97;;
27706;SDS011;36332;51.384;0.040;2023-04-01T16:43:56;12.25;;;6.03;;
27706;SDS011;36332;51.384;0.040;2023-04-01T16:56:50;12.02;;;6.70;;
27706;SDS011;36332;51.384;0.040;2023-04-01T17:02:47;13.98;;;6.93;;
27706;SDS011;36332;51.384;0.040;2023-04-01T17:05:33;11.13;;;5.80;;
27706;SDS011;36332;51.384;0.040;2023-04-01T17:14:03;17.70;;;8.00;;
27706;SDS011;36332;51.384;0.040;2023-04-01T17:17:05;11.43;;;5.57;;
27706;SDS011;36332;51.384;0.040;2023-04-01T17:19:56;17.20;;;8.77;;
27706;SDS011;36332;51.384;0.040;2023-04-01T17:22:32;9.98;;;5.38;;
27706;SDS011;36332;51.384;0.040;2023-04-01T17:25:09;20.47;;;9.60;;
27706;SDS011;36332;51.384;0.040;2023-04-01T17:41:34;14.75;;;7.15;;
27706;SDS011;36332;51.384;0.040;2023-04-01T17:46:59;12.98;;;7.05;;
27706;SDS011;36332;51.384;0.040;2023-04-01T17:55:26;11.52;;;5.90;;
27706;SDS011;36332;51.384;0.040;2023-04-01T18:06:19;7.55;;;4.60;;
27706;SDS011;36332;51.384;0.040;2023-04-01T18:20:07;7.13;;;4.82;;
27706;SDS011;36332;51.384;0.040;2023-04-01T18:22:40;9.35;;;5.75;;
27706;SDS011;36332;51.384;0.040;2023-04-01T18:28:51;11.05;;;4.78;;
27706;SDS011;36332;51.384;0.040;2023-04-01T18:31:24;10.13;;;4.70;;
27706;SDS011;36332;51.384;0.040;2023-04-01T18:36:44;7.78;;;4.68;;
27706;SDS011;36332;51.384;0.040;2023-04-01T18:39:21;9.25;;;4.85;;
27706;SDS011;36332;51.384;0.040;2023-04-01T18:44:48;6.25;;;4.80;;
27706;SDS011;36332;51.384;0.040;2023-04-01T18:47:38;14.30;;;4.72;;
27706;SDS011;36332;51.384;0.040;2023-04-01T18:50:17;10.40;;;4.50;;
27706;SDS011;36332;51.384;0.040;2023-04-01T18:53:17;12.75;;;5.35;;
27706;SDS011;36332;51.384;0.040;2023-04-01T18:55:51;27.40;;;6.22;;
27706;SDS011;36332;51.384;0.040;2023-04-01T18:58:35;7.97;;;4.70;;
27706;SDS011;36332;51.384;0.040;2023-04-01T19:01:26;13.95;;;6.10;;
27706;SDS011;36332;51.384;0.040;2023-04-01T19:04:08;10.23;;;5.00;;
27706;SDS011;36332;51.384;0.040;2023-04-01T19:06:53;11.00;;;5.43;;
27706;SDS011;36332;51.384;0.040;2023-04-01T19:09:26;17.88;;;5.60;;
27706;SDS011;36332;51.384;0.040;2023-04-01T19:12:17;12.30;;;4.55;;
27706;SDS011;36332;51.384;0.040;2023-04-01T19:17:58;9.40;;;4.00;;
27706;SDS011;36332;51.384;0.040;2023-04-01T19:20:42;10.32;;;4.68;;
27706;SDS011;36332;51.384;0.040;2023-04-01T19:26:42;8.18;;;4.30;;
27706;SDS011;36332;51.384;0.040;2023-04-01T19:34:46;9.55;;;3.97;;
27706;SDS011;36332;51.384;0.040;2023-04-01T19:40:10;5.75;;;3.30;;
27706;SDS011;36332;51.384;0.040;2023-04-01T19:48:44;9.65;;;3.47;;
27706;SDS011;36332;51.384;0.040;2023-04-01T19:57:03;6.03;;;3.42;;
27706;SDS011;36332;51.384;0.040;2023-04-01T19:59:50;5.90;;;3.33;;
27706;SDS011;36332;51.384;0.040;2023-04-01T20:05:28;10.63;;;3.58;;
27706;SDS011;36332;51.384;0.040;2023-04-01T20:08:22;8.18;;;3.47;;
27706;SDS011;36332;51.384;0.040;2023-04-01T20:11:28;8.38;;;3.15;;
27706;SDS011;36332;51.384;0.040;2023-04-01T20:16:58;8.45;;;3.78;;
27706;SDS011;36332;51.384;0.040;2023-04-01T20:19:37;7.72;;;3.20;;
27706;SDS011;36332;51.384;0.040;2023-04-01T20:22:29;7.55;;;2.85;;
27706;SDS011;36332;51.384;0.040;2023-04-01T20:25:46;9.55;;;3.03;;
27706;SDS011;36332;51.384;0.040;2023-04-01T20:28:05;7.63;;;2.72;;
27706;SDS011;36332;51.384;0.040;2023-04-01T20:33:46;8.15;;;3.15;;
27706;SDS011;36332;51.384;0.040;2023-04-01T20:51:15;8.45;;;3.40;;
27706;SDS011;36332;51.384;0.040;2023-04-01T20:56:34;12.60;;;3.40;;
27706;SDS011;36332;51.384;0.040;2023-04-01T20:59:35;8.98;;;3.60;;
27706;SDS011;36332;51.384;0.040;2023-04-01T21:02:20;9.50;;;3.35;;
27706;SDS011;36332;51.384;0.040;2023-04-01T21:08:26;5.80;;;2.22;;
27706;SDS011;36332;51.384;0.040;2023-04-01T21:11:29;4.95;;;2.03;;
27706;SDS011;36332;51.384;0.040;2023-04-01T21:27:51;9.38;;;2.63;;
27706;SDS011;36332;51.384;0.040;2023-04-01T21:30:54;8.65;;;1.80;;
27706;SDS011;36332;51.384;0.040;2023-04-01T21:33:35;7.00;;;1.80;;
27706;SDS011;36332;51.384;0.040;2023-04-01T21:47:46;8.77;;;1.90;;
27706;SDS011;36332;51.384;0.040;2023-04-01T21:53:39;4.07;;;1.85;;
27706;SDS011;36332;51.384;0.040;2023-04-01T21:59:21;3.35;;;1.77;;
27706;SDS011;36332;51.384;0.040;2023-04-01T22:17:08;4.65;;;2.20;;
27706;SDS011;36332;51.384;0.040;2023-04-01T22:20:21;4.13;;;1.92;;
27706;SDS011;36332;51.384;0.040;2023-04-01T22:26:00;4.55;;;1.65;;
27706;SDS011;36332;51.384;0.040;2023-04-01T22:31:43;2.58;;;2.08;;
27706;SDS011;36332;51.384;0.040;2023-04-01T22:34:40;4.38;;;2.00;;
27706;SDS011;36332;51.384;0.040;2023-04-01T22:56:33;3.22;;;2.30;;
27706;SDS011;36332;51.384;0.040;2023-04-01T23:01:44;6.32;;;2.15;;
27706;SDS011;36332;51.384;0.040;2023-04-01T23:04:31;3.33;;;2.42;;
27706;SDS011;36332;51.384;0.040;2023-04-01T23:07:06;5.90;;;2.47;;
27706;SDS011;36332;51.384;0.040;2023-04-01T23:10:05;5.85;;;2.80;;
27706;SDS011;36332;51.384;0.040;2023-04-01T23:12:43;2.47;;;2.13;;
27706;SDS011;36332;51.384;0.040;2023-04-01T23:15:13;4.20;;;2.42;;
27706;SDS011;36332;51.384;0.040;2023-04-01T23:28:41;5.57;;;2.42;;
27706;SDS011;36332;51.384;0.040;2023-04-01T23:31:33;4.18;;;2.80;;
27706;SDS011;36332;51.384;0.040;2023-04-01T23:34:27;7.65;;;2.63;;
27706;SDS011;36332;51.384;0.040;2023-04-01T23:37:05;3.80;;;2.70;;
27706;SDS011;36332;51.384;0.040;2023-04-01T23:39:41;4.00;;;2.30;;
27706;SDS011;36332;51.384;0.040;2023-04-01T23:42:22;4.25;;;2.10;;
27706;SDS011;36332;51.384;0.040;2023-04-01T23:44:53;5.70;;;2.80;;
27706;SDS011;36332;51.384;0.040;2023-04-01T23:47:32;5.18;;;2.45;;
27706;SDS011;36332;51.384;0.040;2023-04-01T23:50:14;5.25;;;2.63;;
27706;SDS011;36332;51.384;0.040;2023-04-01T23:52:47;5.25;;;2.75;;
27706;SDS011;36332;51.384;0.040;2023-04-01T23:55:24;5.57;;;3.13;;
